Airfield :
LOGIN :

Register | Disclaimer

   EN    FR    IT 

 










Legend :    VFR   Marginal VFR   IFR   Intensive IFR   Very Intensive IFR
Visi :
Ceiling :
>= 8 km
>= 3000ft
5 to 8 km
1000 to 3000 ft
1500m to 5 km
500 to 1000 ft
800 to 1500m
200 to 500 ft
< 800m
< 200 ft
Symbols :   Thunderstorms  Fog  Heavy snow  Heavy precipitations  Wind > 20 kt
SIGMETs :     Misc.  Thunderstorms  Icing  Turbulence  Mountain Waves  Volcanic Ashes







- Airport Elevation : 392 ft
- IATA code : CDG
- Download approach charts


LFPG - Paris-Aeroport Charles De Gaulle

CURRENT METAR :
  • 260830Z 25008KT 210V290 9999 SCT020 17/11 Q1018 NOSIG

EXPIRED METARs :
  • 260800Z 26008KT 9999 SCT016 16/11 Q1018 NOSIG
  • 260730Z 24006KT 200V280 9999 FEW012 SCT260 16/12 Q1018 NOSIG
  • 260700Z 24007KT 9000 FEW010 SCT260 15/11 Q1018 NOSIG
  • 260630Z 25008KT 8000 FEW008 SCT260 14/11 Q1018 NOSIG
  • 260600Z 26008KT 8000 FEW008 SCT260 14/11 Q1018 NOSIG

TAF TAF LFPG
Valid from the 26 at 06:00 until the 27 at 12:00 UTC


260500Z 2606/2712 26008KT CAVOK TX22/2614Z TN13/2606Z
BECMG 2607/2609 SCT020
TEMPO 2614/2617 28010G20KT
BECMG 2620/2622 BKN014
TEMPO 2622/2706 4000 RA BKN010
BECMG 2706/2708 30010KT BKN040
ATIS : +33 1 48 62 10 92
No reported NOTAMs for that airfield.



MET'MAP, your aeronautical weather chart ! - Copyright ORBIFLY December 2007 - Disclaimer

ORBIFLY MET'MAP TEAM :

Programming & Development : Alexandra Zaïnal
Concept & Development : Baudouin d'Aumeries
Co-Development & Prog : Marc-Olivier Méhu
Technical & hardware support : Manuel Goepfert

Contact : metmap@orbifly.com




SOURCES & CREDITS :

   NOAA